sensor_id;sensor_type;location;lat;lon;timestamp;pressure;altitude;pressure_sealevel;temperature;humidity
71145;BME280;58812;47.698;17.726;2023-03-15T00:00:40;99201.28;;;8.08;66.54
71145;BME280;58812;47.698;17.726;2023-03-15T00:03:07;99199.28;;;8.10;65.80
71145;BME280;58812;47.698;17.726;2023-03-15T00:05:33;99203.25;;;8.06;66.36
71145;BME280;58812;47.698;17.726;2023-03-15T00:07:58;99205.72;;;7.99;66.81
71145;BME280;58812;47.698;17.726;2023-03-15T00:10:24;99207.25;;;8.02;66.39
71145;BME280;58812;47.698;17.726;2023-03-15T00:12:49;99189.88;;;7.98;66.65
71145;BME280;58812;47.698;17.726;2023-03-15T00:15:15;99188.41;;;8.03;65.41
71145;BME280;58812;47.698;17.726;2023-03-15T00:17:40;99182.09;;;8.04;65.07
71145;BME280;58812;47.698;17.726;2023-03-15T00:20:07;99186.91;;;8.01;65.10
71145;BME280;58812;47.698;17.726;2023-03-15T00:22:33;99188.75;;;8.00;64.36
71145;BME280;58812;47.698;17.726;2023-03-15T00:24:58;99191.25;;;8.02;64.96
71145;BME280;58812;47.698;17.726;2023-03-15T00:27:23;99189.59;;;8.01;63.71
71145;BME280;58812;47.698;17.726;2023-03-15T00:29:49;99195.94;;;8.08;62.68
71145;BME280;58812;47.698;17.726;2023-03-15T00:32:14;99194.59;;;8.04;62.97
71145;BME280;58812;47.698;17.726;2023-03-15T00:34:40;99203.75;;;8.01;63.18
71145;BME280;58812;47.698;17.726;2023-03-15T00:37:05;99194.22;;;7.99;63.25
71145;BME280;58812;47.698;17.726;2023-03-15T00:39:31;99208.56;;;8.06;61.79
71145;BME280;58812;47.698;17.726;2023-03-15T00:42:01;99207.25;;;8.02;62.68
71145;BME280;58812;47.698;17.726;2023-03-15T00:44:28;99209.53;;;7.97;62.92
71145;BME280;58812;47.698;17.726;2023-03-15T00:46:55;99209.69;;;7.95;62.69
71145;BME280;58812;47.698;17.726;2023-03-15T00:49:20;99216.84;;;7.95;62.91
71145;BME280;58812;47.698;17.726;2023-03-15T00:51:45;99215.84;;;7.96;62.88
71145;BME280;58812;47.698;17.726;2023-03-15T00:54:11;99214.81;;;7.89;64.86
71145;BME280;58812;47.698;17.726;2023-03-15T00:56:38;99212.16;;;7.89;63.84
71145;BME280;58812;47.698;17.726;2023-03-15T00:59:04;99208.41;;;7.82;64.30
71145;BME280;58812;47.698;17.726;2023-03-15T01:01:30;99229.94;;;7.88;63.53
71145;BME280;58812;47.698;17.726;2023-03-15T01:03:55;99213.81;;;7.90;63.45
71145;BME280;58812;47.698;17.726;2023-03-15T01:06:24;99217.00;;;7.93;62.50
71145;BME280;58812;47.698;17.726;2023-03-15T01:08:50;99218.81;;;7.93;62.69
71145;BME280;58812;47.698;17.726;2023-03-15T01:11:23;99229.25;;;7.86;63.56
71145;BME280;58812;47.698;17.726;2023-03-15T01:13:51;99217.78;;;7.86;63.29
71145;BME280;58812;47.698;17.726;2023-03-15T01:16:17;99230.09;;;7.87;63.02
71145;BME280;58812;47.698;17.726;2023-03-15T01:18:43;99226.75;;;7.85;63.12
71145;BME280;58812;47.698;17.726;2023-03-15T01:21:10;99233.09;;;7.84;63.06
71145;BME280;58812;47.698;17.726;2023-03-15T01:23:36;99234.38;;;7.80;63.57
71145;BME280;58812;47.698;17.726;2023-03-15T01:26:04;99225.72;;;7.78;63.52
71145;BME280;58812;47.698;17.726;2023-03-15T01:28:29;99220.38;;;7.78;63.45
71145;BME280;58812;47.698;17.726;2023-03-15T01:30:55;99224.97;;;7.67;64.53
71145;BME280;58812;47.698;17.726;2023-03-15T01:33:21;99231.94;;;7.68;64.25
71145;BME280;58812;47.698;17.726;2023-03-15T01:35:47;99238.72;;;7.63;65.03
71145;BME280;58812;47.698;17.726;2023-03-15T01:38:12;99232.56;;;7.62;64.57
71145;BME280;58812;47.698;17.726;2023-03-15T01:40:43;99235.22;;;7.62;64.70
71145;BME280;58812;47.698;17.726;2023-03-15T01:43:21;99243.84;;;7.56;65.20
71145;BME280;58812;47.698;17.726;2023-03-15T01:45:55;99264.53;;;7.62;65.02
71145;BME280;58812;47.698;17.726;2023-03-15T01:48:24;99271.13;;;7.58;65.98
71145;BME280;58812;47.698;17.726;2023-03-15T01:50:51;99262.53;;;7.64;66.33
71145;BME280;58812;47.698;17.726;2023-03-15T01:53:19;99267.34;;;7.61;66.20
71145;BME280;58812;47.698;17.726;2023-03-15T01:55:45;99270.16;;;7.59;66.79
71145;BME280;58812;47.698;17.726;2023-03-15T01:58:11;99258.97;;;7.56;67.40
71145;BME280;58812;47.698;17.726;2023-03-15T02:00:36;99266.56;;;7.50;68.17
71145;BME280;58812;47.698;17.726;2023-03-15T02:03:09;99266.03;;;7.47;68.41
71145;BME280;58812;47.698;17.726;2023-03-15T02:05:43;99267.84;;;7.46;69.04
71145;BME280;58812;47.698;17.726;2023-03-15T02:08:10;99262.00;;;7.43;69.28
71145;BME280;58812;47.698;17.726;2023-03-15T02:10:44;99268.00;;;7.45;69.75
71145;BME280;58812;47.698;17.726;2023-03-15T02:13:14;99261.31;;;7.41;70.48
71145;BME280;58812;47.698;17.726;2023-03-15T02:15:41;99260.94;;;7.36;71.38
71145;BME280;58812;47.698;17.726;2023-03-15T02:18:12;99254.91;;;7.34;71.97
71145;BME280;58812;47.698;17.726;2023-03-15T02:23:17;99272.66;;;7.25;73.40
71145;BME280;58812;47.698;17.726;2023-03-15T02:28:36;99273.25;;;7.19;74.80
71145;BME280;58812;47.698;17.726;2023-03-15T02:31:03;99277.34;;;7.13;75.46
71145;BME280;58812;47.698;17.726;2023-03-15T02:33:32;99293.59;;;7.10;76.29
71145;BME280;58812;47.698;17.726;2023-03-15T02:38:43;99306.66;;;7.04;77.03
71145;BME280;58812;47.698;17.726;2023-03-15T02:41:10;99297.75;;;6.95;77.92
71145;BME280;58812;47.698;17.726;2023-03-15T02:43:37;99309.38;;;6.94;78.38
71145;BME280;58812;47.698;17.726;2023-03-15T02:46:03;99294.69;;;6.90;78.57
71145;BME280;58812;47.698;17.726;2023-03-15T02:48:31;99295.25;;;6.84;78.42
71145;BME280;58812;47.698;17.726;2023-03-15T02:50:57;99286.88;;;6.79;79.04
71145;BME280;58812;47.698;17.726;2023-03-15T02:53:23;99293.63;;;6.73;79.02
71145;BME280;58812;47.698;17.726;2023-03-15T02:55:48;99287.63;;;6.71;78.54
71145;BME280;58812;47.698;17.726;2023-03-15T02:58:13;99294.75;;;6.71;78.41
71145;BME280;58812;47.698;17.726;2023-03-15T03:00:39;99301.63;;;6.63;78.95
71145;BME280;58812;47.698;17.726;2023-03-15T03:03:04;99309.50;;;6.55;79.73
71145;BME280;58812;47.698;17.726;2023-03-15T03:05:30;99306.44;;;6.50;79.56
71145;BME280;58812;47.698;17.726;2023-03-15T03:07:56;99308.41;;;6.48;78.36
71145;BME280;58812;47.698;17.726;2023-03-15T03:10:23;99320.28;;;6.44;78.59
71145;BME280;58812;47.698;17.726;2023-03-15T03:12:48;99333.06;;;6.40;78.63
71145;BME280;58812;47.698;17.726;2023-03-15T03:15:17;99334.00;;;6.39;78.89
71145;BME280;58812;47.698;17.726;2023-03-15T03:17:43;99334.72;;;6.32;78.09
71145;BME280;58812;47.698;17.726;2023-03-15T03:20:10;99334.31;;;6.27;76.92
71145;BME280;58812;47.698;17.726;2023-03-15T03:22:37;99345.50;;;6.21;75.08
71145;BME280;58812;47.698;17.726;2023-03-15T03:25:03;99341.06;;;6.11;73.47
71145;BME280;58812;47.698;17.726;2023-03-15T03:27:30;99337.00;;;6.07;73.09
71145;BME280;58812;47.698;17.726;2023-03-15T03:29:55;99340.78;;;6.05;73.37
71145;BME280;58812;47.698;17.726;2023-03-15T03:32:21;99348.44;;;5.98;72.49
71145;BME280;58812;47.698;17.726;2023-03-15T03:34:46;99349.72;;;5.94;71.78
71145;BME280;58812;47.698;17.726;2023-03-15T03:37:18;99361.97;;;5.85;71.60
71145;BME280;58812;47.698;17.726;2023-03-15T03:39:44;99362.53;;;5.79;70.84
71145;BME280;58812;47.698;17.726;2023-03-15T03:42:10;99375.53;;;5.73;69.76
71145;BME280;58812;47.698;17.726;2023-03-15T03:44:36;99371.75;;;5.66;69.25
71145;BME280;58812;47.698;17.726;2023-03-15T03:47:01;99373.12;;;5.60;69.13
71145;BME280;58812;47.698;17.726;2023-03-15T03:49:27;99373.69;;;5.54;69.28
71145;BME280;58812;47.698;17.726;2023-03-15T03:51:52;99382.44;;;5.45;68.84
71145;BME280;58812;47.698;17.726;2023-03-15T03:54:17;99384.69;;;5.40;68.34
71145;BME280;58812;47.698;17.726;2023-03-15T03:56:46;99377.25;;;5.33;68.64
71145;BME280;58812;47.698;17.726;2023-03-15T03:59:12;99388.97;;;5.31;68.64
71145;BME280;58812;47.698;17.726;2023-03-15T04:01:37;99384.22;;;5.25;68.60
71145;BME280;58812;47.698;17.726;2023-03-15T04:04:03;99376.53;;;5.22;68.73
71145;BME280;58812;47.698;17.726;2023-03-15T04:06:28;99370.91;;;5.15;68.46
71145;BME280;58812;47.698;17.726;2023-03-15T04:08:53;99379.97;;;5.13;68.80
71145;BME280;58812;47.698;17.726;2023-03-15T04:11:19;99382.31;;;5.06;69.22
71145;BME280;58812;47.698;17.726;2023-03-15T04:13:44;99373.66;;;5.04;68.74
71145;BME280;58812;47.698;17.726;2023-03-15T04:16:10;99368.47;;;5.02;69.00
71145;BME280;58812;47.698;17.726;2023-03-15T04:18:36;99364.00;;;4.93;69.11
71145;BME280;58812;47.698;17.726;2023-03-15T04:21:04;99365.91;;;4.91;68.62
71145;BME280;58812;47.698;17.726;2023-03-15T04:23:35;99368.84;;;4.88;69.16
71145;BME280;58812;47.698;17.726;2023-03-15T04:26:01;99368.41;;;4.83;68.60
71145;BME280;58812;47.698;17.726;2023-03-15T04:28:27;99367.69;;;4.81;68.55
71145;BME280;58812;47.698;17.726;2023-03-15T04:30:54;99367.25;;;4.76;68.30
71145;BME280;58812;47.698;17.726;2023-03-15T04:33:23;99364.00;;;4.72;68.06
71145;BME280;58812;47.698;17.726;2023-03-15T04:35:49;99363.31;;;4.70;68.76
71145;BME280;58812;47.698;17.726;2023-03-15T04:38:17;99369.00;;;4.66;68.08
71145;BME280;58812;47.698;17.726;2023-03-15T04:40:42;99377.22;;;4.63;68.87
71145;BME280;58812;47.698;17.726;2023-03-15T04:43:08;99376.87;;;4.56;68.38
71145;BME280;58812;47.698;17.726;2023-03-15T04:45:33;99385.72;;;4.57;68.39
71145;BME280;58812;47.698;17.726;2023-03-15T04:48:00;99392.22;;;4.52;68.52
71145;BME280;58812;47.698;17.726;2023-03-15T04:50:26;99412.00;;;4.48;68.56
71145;BME280;58812;47.698;17.726;2023-03-15T04:52:52;99403.84;;;4.40;68.56
71145;BME280;58812;47.698;17.726;2023-03-15T04:55:17;99414.69;;;4.37;68.69
71145;BME280;58812;47.698;17.726;2023-03-15T04:57:43;99401.72;;;4.34;68.54
71145;BME280;58812;47.698;17.726;2023-03-15T05:00:09;99408.00;;;4.33;68.63
71145;BME280;58812;47.698;17.726;2023-03-15T05:02:37;99404.03;;;4.27;67.89
71145;BME280;58812;47.698;17.726;2023-03-15T05:05:07;99409.59;;;4.24;67.64
71145;BME280;58812;47.698;17.726;2023-03-15T05:07:33;99410.69;;;4.22;66.72
71145;BME280;58812;47.698;17.726;2023-03-15T05:09:59;99422.13;;;4.22;66.94
71145;BME280;58812;47.698;17.726;2023-03-15T05:12:26;99432.81;;;4.21;66.90
71145;BME280;58812;47.698;17.726;2023-03-15T05:14:51;99433.94;;;4.18;66.19
71145;BME280;58812;47.698;17.726;2023-03-15T05:17:16;99449.69;;;4.20;65.74
71145;BME280;58812;47.698;17.726;2023-03-15T05:19:42;99436.34;;;4.21;64.74
71145;BME280;58812;47.698;17.726;2023-03-15T05:22:07;99436.44;;;4.20;64.39
71145;BME280;58812;47.698;17.726;2023-03-15T05:24:33;99444.16;;;4.23;64.01
71145;BME280;58812;47.698;17.726;2023-03-15T05:26:58;99445.25;;;4.20;63.61
71145;BME280;58812;47.698;17.726;2023-03-15T05:29:24;99450.16;;;4.25;63.06
71145;BME280;58812;47.698;17.726;2023-03-15T05:31:49;99445.84;;;4.24;62.69
71145;BME280;58812;47.698;17.726;2023-03-15T05:34:19;99446.53;;;4.26;62.22
71145;BME280;58812;47.698;17.726;2023-03-15T05:36:49;99443.06;;;4.25;63.15
71145;BME280;58812;47.698;17.726;2023-03-15T05:39:15;99464.16;;;4.27;61.47
71145;BME280;58812;47.698;17.726;2023-03-15T05:41:41;99461.38;;;4.28;62.50
71145;BME280;58812;47.698;17.726;2023-03-15T05:44:07;99465.09;;;4.26;62.04
71145;BME280;58812;47.698;17.726;2023-03-15T05:46:32;99469.31;;;4.28;62.06
71145;BME280;58812;47.698;17.726;2023-03-15T05:48:58;99485.78;;;4.32;62.80
71145;BME280;58812;47.698;17.726;2023-03-15T05:51:23;99487.72;;;4.30;61.83
71145;BME280;58812;47.698;17.726;2023-03-15T05:53:49;99494.69;;;4.31;62.02
71145;BME280;58812;47.698;17.726;2023-03-15T05:56:14;99500.00;;;4.31;62.11
71145;BME280;58812;47.698;17.726;2023-03-15T05:58:39;99498.66;;;4.37;62.59
71145;BME280;58812;47.698;17.726;2023-03-15T06:01:05;99497.59;;;4.39;62.57
71145;BME280;58812;47.698;17.726;2023-03-15T06:03:31;99495.88;;;4.38;62.97
71145;BME280;58812;47.698;17.726;2023-03-15T06:05:57;99496.59;;;4.40;62.97
71145;BME280;58812;47.698;17.726;2023-03-15T06:08:23;99502.88;;;4.39;63.28
71145;BME280;58812;47.698;17.726;2023-03-15T06:10:48;99490.00;;;4.35;63.43
71145;BME280;58812;47.698;17.726;2023-03-15T06:13:14;99486.38;;;4.36;63.93
71145;BME280;58812;47.698;17.726;2023-03-15T06:15:39;99493.22;;;4.38;64.18
71145;BME280;58812;47.698;17.726;2023-03-15T06:18:05;99509.38;;;4.35;64.82
71145;BME280;58812;47.698;17.726;2023-03-15T06:20:30;99505.06;;;4.34;65.27
71145;BME280;58812;47.698;17.726;2023-03-15T06:22:56;99509.59;;;4.43;65.46
71145;BME280;58812;47.698;17.726;2023-03-15T06:25:22;99509.25;;;4.37;66.03
71145;BME280;58812;47.698;17.726;2023-03-15T06:27:48;99507.53;;;4.47;65.94
71145;BME280;58812;47.698;17.726;2023-03-15T06:30:13;99511.25;;;4.44;66.91
71145;BME280;58812;47.698;17.726;2023-03-15T06:32:39;99513.72;;;4.36;67.01
71145;BME280;58812;47.698;17.726;2023-03-15T06:35:04;99512.87;;;4.36;67.60
71145;BME280;58812;47.698;17.726;2023-03-15T06:37:30;99519.34;;;4.43;67.60
71145;BME280;58812;47.698;17.726;2023-03-15T06:39:56;99525.75;;;4.40;68.24
71145;BME280;58812;47.698;17.726;2023-03-15T06:42:21;99523.09;;;4.40;68.40
71145;BME280;58812;47.698;17.726;2023-03-15T06:44:47;99521.78;;;4.35;68.53
71145;BME280;58812;47.698;17.726;2023-03-15T06:47:12;99519.47;;;4.41;68.70
71145;BME280;58812;47.698;17.726;2023-03-15T06:49:38;99528.97;;;4.44;68.98
71145;BME280;58812;47.698;17.726;2023-03-15T06:52:04;99525.91;;;4.60;68.74
71145;BME280;58812;47.698;17.726;2023-03-15T06:54:30;99528.87;;;4.45;69.17
71145;BME280;58812;47.698;17.726;2023-03-15T06:56:56;99533.91;;;4.48;69.26
71145;BME280;58812;47.698;17.726;2023-03-15T06:59:22;99537.53;;;4.47;69.23
71145;BME280;58812;47.698;17.726;2023-03-15T07:01:47;99523.41;;;4.58;69.46
71145;BME280;58812;47.698;17.726;2023-03-15T07:04:13;99531.03;;;4.51;69.74
71145;BME280;58812;47.698;17.726;2023-03-15T07:06:38;99537.97;;;4.64;69.50
71145;BME280;58812;47.698;17.726;2023-03-15T07:09:04;99537.03;;;4.53;69.65
71145;BME280;58812;47.698;17.726;2023-03-15T07:11:30;99547.16;;;4.48;69.74
71145;BME280;58812;47.698;17.726;2023-03-15T07:13:55;99545.94;;;4.52;70.13
71145;BME280;58812;47.698;17.726;2023-03-15T07:16:21;99553.44;;;4.47;69.54
71145;BME280;58812;47.698;17.726;2023-03-15T07:18:46;99557.72;;;4.60;70.00
71145;BME280;58812;47.698;17.726;2023-03-15T07:21:12;99562.69;;;4.53;69.86
71145;BME280;58812;47.698;17.726;2023-03-15T07:23:37;99559.19;;;4.52;69.76
71145;BME280;58812;47.698;17.726;2023-03-15T07:26:03;99571.81;;;4.60;69.85
71145;BME280;58812;47.698;17.726;2023-03-15T07:28:28;99567.47;;;4.70;69.52
71145;BME280;58812;47.698;17.726;2023-03-15T07:31:02;99578.53;;;4.75;69.53
71145;BME280;58812;47.698;17.726;2023-03-15T07:33:30;99586.59;;;4.74;69.13
71145;BME280;58812;47.698;17.726;2023-03-15T07:35:56;99595.47;;;4.84;69.19
71145;BME280;58812;47.698;17.726;2023-03-15T07:38:23;99590.34;;;4.71;69.26
71145;BME280;58812;47.698;17.726;2023-03-15T07:40:49;99606.25;;;4.71;69.21
71145;BME280;58812;47.698;17.726;2023-03-15T07:43:14;99606.75;;;4.65;69.07
71145;BME280;58812;47.698;17.726;2023-03-15T07:45:40;99595.84;;;4.79;69.50
71145;BME280;58812;47.698;17.726;2023-03-15T07:48:06;99618.50;;;4.83;69.13
71145;BME280;58812;47.698;17.726;2023-03-15T07:50:31;99622.69;;;4.86;68.44
71145;BME280;58812;47.698;17.726;2023-03-15T07:52:57;99627.34;;;5.05;69.14
71145;BME280;58812;47.698;17.726;2023-03-15T07:55:23;99636.94;;;5.17;68.73
71145;BME280;58812;47.698;17.726;2023-03-15T07:57:49;99627.87;;;4.99;68.43
71145;BME280;58812;47.698;17.726;2023-03-15T08:00:15;99646.88;;;5.04;68.51
71145;BME280;58812;47.698;17.726;2023-03-15T08:02:41;99639.97;;;5.13;68.47
71145;BME280;58812;47.698;17.726;2023-03-15T08:05:07;99636.16;;;5.05;68.37
71145;BME280;58812;47.698;17.726;2023-03-15T08:07:32;99644.69;;;5.09;68.63
71145;BME280;58812;47.698;17.726;2023-03-15T08:09:57;99639.56;;;4.96;68.52
71145;BME280;58812;47.698;17.726;2023-03-15T08:12:23;99651.34;;;5.03;68.80
71145;BME280;58812;47.698;17.726;2023-03-15T08:14:49;99648.47;;;4.95;68.90
71145;BME280;58812;47.698;17.726;2023-03-15T08:17:16;99652.63;;;4.88;69.13
71145;BME280;58812;47.698;17.726;2023-03-15T08:19:41;99657.03;;;4.99;68.93
71145;BME280;58812;47.698;17.726;2023-03-15T08:22:07;99667.22;;;4.82;69.11
71145;BME280;58812;47.698;17.726;2023-03-15T08:24:33;99658.13;;;4.96;68.61
71145;BME280;58812;47.698;17.726;2023-03-15T08:26:59;99653.13;;;4.82;68.78
71145;BME280;58812;47.698;17.726;2023-03-15T08:29:24;99658.63;;;4.90;68.82
71145;BME280;58812;47.698;17.726;2023-03-15T08:31:49;99665.50;;;4.93;68.28
71145;BME280;58812;47.698;17.726;2023-03-15T08:34:15;99650.75;;;5.00;67.57
71145;BME280;58812;47.698;17.726;2023-03-15T08:36:41;99652.09;;;4.94;67.23
71145;BME280;58812;47.698;17.726;2023-03-15T08:39:06;99643.66;;;5.00;67.25
71145;BME280;58812;47.698;17.726;2023-03-15T08:41:33;99651.34;;;5.03;67.56
71145;BME280;58812;47.698;17.726;2023-03-15T08:43:59;99650.84;;;5.09;67.07
71145;BME280;58812;47.698;17.726;2023-03-15T08:46:26;99656.13;;;5.09;67.01
71145;BME280;58812;47.698;17.726;2023-03-15T08:48:52;99656.44;;;4.95;66.37
71145;BME280;58812;47.698;17.726;2023-03-15T08:51:18;99653.03;;;5.04;66.45
71145;BME280;58812;47.698;17.726;2023-03-15T08:53:44;99658.50;;;5.24;66.07
71145;BME280;58812;47.698;17.726;2023-03-15T08:56:10;99665.50;;;5.25;65.76
71145;BME280;58812;47.698;17.726;2023-03-15T08:58:35;99675.59;;;5.31;65.73
71145;BME280;58812;47.698;17.726;2023-03-15T09:01:01;99673.25;;;5.17;65.56
71145;BME280;58812;47.698;17.726;2023-03-15T09:03:26;99673.13;;;5.18;65.49
71145;BME280;58812;47.698;17.726;2023-03-15T09:05:58;99694.88;;;5.33;65.66
71145;BME280;58812;47.698;17.726;2023-03-15T09:08:25;99679.97;;;5.21;65.04
71145;BME280;58812;47.698;17.726;2023-03-15T09:10:54;99675.69;;;5.08;65.34
71145;BME280;58812;47.698;17.726;2023-03-15T09:13:20;99674.09;;;5.17;65.50
71145;BME280;58812;47.698;17.726;2023-03-15T09:15:48;99682.94;;;5.06;65.35
71145;BME280;58812;47.698;17.726;2023-03-15T09:18:14;99688.47;;;5.03;65.31
71145;BME280;58812;47.698;17.726;2023-03-15T09:20:39;99697.13;;;5.17;65.46
71145;BME280;58812;47.698;17.726;2023-03-15T09:23:05;99702.09;;;5.10;65.14
71145;BME280;58812;47.698;17.726;2023-03-15T09:25:31;99697.50;;;5.12;65.06
71145;BME280;58812;47.698;17.726;2023-03-15T09:27:56;99707.62;;;5.18;64.96
71145;BME280;58812;47.698;17.726;2023-03-15T09:30:22;99722.47;;;5.09;64.96
71145;BME280;58812;47.698;17.726;2023-03-15T09:32:47;99722.94;;;5.15;64.19
71145;BME280;58812;47.698;17.726;2023-03-15T09:35:16;99718.47;;;5.15;62.43
71145;BME280;58812;47.698;17.726;2023-03-15T09:37:42;99738.78;;;5.37;61.95
71145;BME280;58812;47.698;17.726;2023-03-15T09:40:27;99733.34;;;5.39;61.60
71145;BME280;58812;47.698;17.726;2023-03-15T09:43:05;99734.03;;;5.52;61.75
71145;BME280;58812;47.698;17.726;2023-03-15T09:54:14;99736.56;;;5.74;59.49
71145;BME280;58812;47.698;17.726;2023-03-15T09:56:57;99738.88;;;5.47;58.24
71145;BME280;58812;47.698;17.726;2023-03-15T09:59:30;99730.75;;;5.59;58.15
71145;BME280;58812;47.698;17.726;2023-03-15T10:01:58;99726.53;;;5.78;57.93
71145;BME280;58812;47.698;17.726;2023-03-15T10:04:31;99717.31;;;5.93;57.33
71145;BME280;58812;47.698;17.726;2023-03-15T10:07:08;99739.28;;;5.95;57.10
71145;BME280;58812;47.698;17.726;2023-03-15T10:09:36;99733.44;;;6.01;56.27
71145;BME280;58812;47.698;17.726;2023-03-15T10:20:28;99721.06;;;6.42;53.44
71145;BME280;58812;47.698;17.726;2023-03-15T10:25:26;99725.28;;;6.85;52.18
71145;BME280;58812;47.698;17.726;2023-03-15T10:28:13;99731.22;;;6.67;50.30
71145;BME280;58812;47.698;17.726;2023-03-15T10:30:46;99747.34;;;6.76;51.17
71145;BME280;58812;47.698;17.726;2023-03-15T10:33:30;99741.34;;;6.74;49.39
71145;BME280;58812;47.698;17.726;2023-03-15T10:35:59;99730.47;;;6.96;49.03
71145;BME280;58812;47.698;17.726;2023-03-15T10:38:26;99733.75;;;7.29;49.61
71145;BME280;58812;47.698;17.726;2023-03-15T10:40:52;99728.81;;;6.95;48.51
71145;BME280;58812;47.698;17.726;2023-03-15T10:43:27;99747.38;;;7.35;48.99
71145;BME280;58812;47.698;17.726;2023-03-15T10:46:10;99765.66;;;7.09;47.83
71145;BME280;58812;47.698;17.726;2023-03-15T10:48:38;99764.59;;;7.41;47.67
71145;BME280;58812;47.698;17.726;2023-03-15T10:51:31;99771.63;;;7.42;47.73
71145;BME280;58812;47.698;17.726;2023-03-15T10:54:19;99767.00;;;7.54;47.05
71145;BME280;58812;47.698;17.726;2023-03-15T10:57:13;99773.41;;;8.09;47.20
71145;BME280;58812;47.698;17.726;2023-03-15T11:00:03;99768.69;;;7.74;46.43
71145;BME280;58812;47.698;17.726;2023-03-15T11:02:49;99785.50;;;7.65;46.37
71145;BME280;58812;47.698;17.726;2023-03-15T11:05:16;99779.19;;;7.95;45.15
71145;BME280;58812;47.698;17.726;2023-03-15T11:07:56;99776.38;;;7.87;45.11
71145;BME280;58812;47.698;17.726;2023-03-15T11:10:27;99788.84;;;8.25;44.54
71145;BME280;58812;47.698;17.726;2023-03-15T11:15:39;99804.28;;;8.12;44.58
71145;BME280;58812;47.698;17.726;2023-03-15T11:18:05;99792.47;;;8.24;44.44
71145;BME280;58812;47.698;17.726;2023-03-15T11:20:36;99799.22;;;8.38;44.63
71145;BME280;58812;47.698;17.726;2023-03-15T11:23:22;99809.31;;;8.44;44.72
71145;BME280;58812;47.698;17.726;2023-03-15T11:25:49;99796.00;;;8.15;45.31
71145;BME280;58812;47.698;17.726;2023-03-15T11:28:18;99804.94;;;8.33;44.93
71145;BME280;58812;47.698;17.726;2023-03-15T11:30:45;99815.50;;;8.25;44.53
71145;BME280;58812;47.698;17.726;2023-03-15T11:33:25;99807.09;;;8.10;44.69
71145;BME280;58812;47.698;17.726;2023-03-15T11:35:55;99827.75;;;8.74;43.67
71145;BME280;58812;47.698;17.726;2023-03-15T11:38:48;99823.91;;;8.30;44.24
71145;BME280;58812;47.698;17.726;2023-03-15T11:47:00;99829.09;;;8.98;43.04
71145;BME280;58812;47.698;17.726;2023-03-15T11:49:39;99835.84;;;9.47;42.30
71145;BME280;58812;47.698;17.726;2023-03-15T11:52:07;99844.72;;;9.20;41.89
71145;BME280;58812;47.698;17.726;2023-03-15T11:54:32;99841.44;;;9.72;41.29
71145;BME280;58812;47.698;17.726;2023-03-15T11:57:03;99834.81;;;9.94;40.99
71145;BME280;58812;47.698;17.726;2023-03-15T11:59:37;99831.56;;;9.09;41.55
71145;BME280;58812;47.698;17.726;2023-03-15T12:07:05;99826.25;;;10.08;41.55
71145;BME280;58812;47.698;17.726;2023-03-15T12:11:58;99817.50;;;9.62;41.67
71145;BME280;58812;47.698;17.726;2023-03-15T12:14:29;99809.00;;;9.21;41.07
71145;BME280;58812;47.698;17.726;2023-03-15T12:25:38;99807.31;;;8.55;41.54
71145;BME280;58812;47.698;17.726;2023-03-15T12:28:17;99806.25;;;8.39;41.43
71145;BME280;58812;47.698;17.726;2023-03-15T12:30:44;99811.16;;;8.14;40.70
71145;BME280;58812;47.698;17.726;2023-03-15T12:33:14;99804.22;;;8.60;41.58
71145;BME280;58812;47.698;17.726;2023-03-15T12:35:41;99797.72;;;9.00;40.93
71145;BME280;58812;47.698;17.726;2023-03-15T12:38:21;99800.59;;;9.16;40.89
71145;BME280;58812;47.698;17.726;2023-03-15T12:40:57;99810.25;;;9.27;39.98
71145;BME280;58812;47.698;17.726;2023-03-15T12:43:44;99807.38;;;9.10;40.20
71145;BME280;58812;47.698;17.726;2023-03-15T12:49:13;99823.84;;;9.06;41.05
71145;BME280;58812;47.698;17.726;2023-03-15T12:54:24;99827.34;;;8.69;38.69
71145;BME280;58812;47.698;17.726;2023-03-15T12:56:56;99834.25;;;8.62;38.99
71145;BME280;58812;47.698;17.726;2023-03-15T13:01:57;99826.56;;;8.96;38.84
71145;BME280;58812;47.698;17.726;2023-03-15T13:04:25;99838.09;;;8.97;38.92
71145;BME280;58812;47.698;17.726;2023-03-15T13:07:22;99832.84;;;9.05;39.18
71145;BME280;58812;47.698;17.726;2023-03-15T13:13:13;99838.94;;;9.70;37.94
71145;BME280;58812;47.698;17.726;2023-03-15T13:18:39;99844.19;;;9.07;37.42
71145;BME280;58812;47.698;17.726;2023-03-15T13:21:29;99846.09;;;8.97;37.62
71145;BME280;58812;47.698;17.726;2023-03-15T13:23:57;99863.37;;;9.02;38.09
71145;BME280;58812;47.698;17.726;2023-03-15T13:26:38;99855.87;;;8.69;37.46
71145;BME280;58812;47.698;17.726;2023-03-15T13:29:11;99863.63;;;8.99;37.62
71145;BME280;58812;47.698;17.726;2023-03-15T13:31:39;99872.47;;;9.00;37.50
71145;BME280;58812;47.698;17.726;2023-03-15T13:34:18;99860.88;;;8.81;37.97
71145;BME280;58812;47.698;17.726;2023-03-15T13:36:56;99871.97;;;8.87;37.91
71145;BME280;58812;47.698;17.726;2023-03-15T13:39:29;99858.97;;;8.64;37.79
71145;BME280;58812;47.698;17.726;2023-03-15T13:42:01;99873.22;;;8.92;37.42
71145;BME280;58812;47.698;17.726;2023-03-15T13:44:28;99871.81;;;8.98;37.17
71145;BME280;58812;47.698;17.726;2023-03-15T13:46:55;99875.41;;;9.06;37.25
71145;BME280;58812;47.698;17.726;2023-03-15T13:49:21;99865.84;;;9.14;37.23
71145;BME280;58812;47.698;17.726;2023-03-15T13:51:48;99880.13;;;9.22;37.39
71145;BME280;58812;47.698;17.726;2023-03-15T13:57:13;99872.91;;;9.05;37.65
71145;BME280;58812;47.698;17.726;2023-03-15T13:59:50;99882.91;;;9.30;37.01
71145;BME280;58812;47.698;17.726;2023-03-15T14:02:35;99886.28;;;9.32;36.63
71145;BME280;58812;47.698;17.726;2023-03-15T14:05:06;99899.34;;;8.98;35.74
71145;BME280;58812;47.698;17.726;2023-03-15T14:07:43;99904.00;;;9.33;36.13
71145;BME280;58812;47.698;17.726;2023-03-15T14:12:44;99912.91;;;8.58;34.14
71145;BME280;58812;47.698;17.726;2023-03-15T14:15:17;99904.63;;;8.61;34.23
71145;BME280;58812;47.698;17.726;2023-03-15T14:20:27;99909.41;;;8.67;33.72